Time;durP1;ratioP1;P1;durP2;ratioP2;P2;SDS_P1;SDS_P2;PMS_P1;PMS_P2;Temp;Humidity;BMP_temperature;BMP_pressure;BME280_temperature;BME280_humidity;BME280_pressure;Samples;Min_cycle;Max_cycle;Signal;HPM_P1;HPM_P2
2023/01/11 00:01:19;;;;;;;3.53;2.30;;;;;;;6.11;73.92;98941.06;4946178;28;20114;-92
2023/01/11 00:03:44;;;;;;;4.15;2.35;;;;;;;6.08;73.92;98947.72;4954451;28;20508;-94
2023/01/11 00:06:10;;;;;;;4.32;2.33;;;;;;;6.07;74.17;98964.78;4953982;28;20031;-94
2023/01/11 00:08:35;;;;;;;3.50;2.20;;;;;;;6.11;73.60;98957.91;4945849;28;20026;-91
2023/01/11 00:11:01;;;;;;;4.28;2.55;;;;;;;6.23;73.38;98961.25;4961264;28;20051;-94
2023/01/11 00:13:27;;;;;;;2.67;1.92;;;;;;;6.45;72.86;98992.50;4977110;28;20023;-93
2023/01/11 00:15:53;;;;;;;3.30;2.10;;;;;;;6.29;73.00;98988.84;4964487;28;20034;-93
2023/01/11 00:18:18;;;;;;;2.80;1.85;;;;;;;6.10;74.06;98976.84;4959625;28;20086;-94
2023/01/11 00:20:44;;;;;;;4.65;2.83;;;;;;;5.95;74.91;98978.25;4945302;28;20026;-94
2023/01/11 00:23:09;;;;;;;4.03;3.03;;;;;;;5.84;76.22;98976.50;4957844;28;20019;-93
2023/01/11 00:25:35;;;;;;;5.32;3.53;;;;;;;5.90;76.17;98994.22;4944462;28;20424;-94
2023/01/11 00:28:00;;;;;;;7.82;3.95;;;;;;;5.90;75.90;98993.41;4945193;28;20117;-93
2023/01/11 00:30:26;;;;;;;7.68;3.70;;;;;;;5.81;76.54;98999.19;4945380;28;20100;-94
2023/01/11 00:32:58;;;;;;;7.32;3.70;;;;;;;5.78;77.45;99012.22;4961097;28;20097;-93
2023/01/11 00:35:24;;;;;;;6.95;3.40;;;;;;;5.93;77.12;99024.97;4973080;28;20030;-94
2023/01/11 00:37:50;;;;;;;5.95;3.42;;;;;;;5.80;76.37;98989.53;4961767;28;20034;-94
2023/01/11 00:40:16;;;;;;;6.30;3.17;;;;;;;6.09;76.43;99026.81;4962740;28;20022;-94
2023/01/11 00:48:09;;;;;;;5.05;2.90;;;;;;;5.73;77.32;98988.09;4969708;28;20103;-93
2023/01/11 00:50:38;;;;;;;4.90;2.58;;;;;;;5.82;76.86;99005.31;4961181;28;20027;-94
2023/01/11 00:53:04;;;;;;;5.50;2.78;;;;;;;5.85;76.81;99010.16;4965244;28;20401;-94
2023/01/11 00:55:32;;;;;;;4.95;3.05;;;;;;;5.81;77.63;99004.53;4963058;28;20026;-93
2023/01/11 00:57:58;;;;;;;4.38;3.10;;;;;;;5.91;77.70;99033.22;4962421;28;20048;-93
2023/01/11 01:00:24;;;;;;;5.03;3.20;;;;;;;5.72;76.87;99008.66;4962066;28;20027;-93
2023/01/11 01:02:50;;;;;;;4.85;3.15;;;;;;;5.69;77.43;99001.16;4964714;28;20061;-93
2023/01/11 01:05:16;;;;;;;4.70;3.05;;;;;;;5.71;77.44;98999.03;4964321;28;20040;-93
2023/01/11 01:07:42;;;;;;;5.47;3.25;;;;;;;5.79;76.98;99014.66;4957348;28;20033;-94
2023/01/11 01:10:09;;;;;;;5.63;3.13;;;;;;;5.77;77.37;98999.91;4938656;28;20027;-93
2023/01/11 01:15:20;;;;;;;4.13;2.92;;;;;;;5.74;77.67;99009.22;4958871;28;20057;-93
2023/01/11 01:17:46;;;;;;;5.30;2.58;;;;;;;5.78;76.89;99010.34;4948655;28;20026;-93
2023/01/11 01:20:11;;;;;;;3.78;2.50;;;;;;;5.65;76.54;99000.81;4960970;28;20026;-92
2023/01/11 01:22:37;;;;;;;3.72;2.38;;;;;;;5.59;77.55;99001.81;4944139;28;20121;-93
2023/01/11 01:25:02;;;;;;;2.50;1.92;;;;;;;5.73;76.84;99026.31;4964055;28;20478;-93
2023/01/11 01:27:28;;;;;;;3.42;2.40;;;;;;;5.76;77.67;99003.63;4980519;28;20022;-92
2023/01/11 01:29:54;;;;;;;3.50;2.42;;;;;;;5.76;76.74;99017.00;4947479;28;20033;-92
2023/01/11 01:32:19;;;;;;;3.38;2.38;;;;;;;5.62;77.09;99001.31;4963022;28;20093;-92
2023/01/11 01:34:44;;;;;;;3.05;2.20;;;;;;;5.54;77.32;98991.06;4980249;28;21315;-93
2023/01/11 01:37:10;;;;;;;4.55;2.88;;;;;;;5.58;77.64;99000.19;4964136;28;20026;-93
2023/01/11 01:39:36;;;;;;;4.50;2.70;;;;;;;5.61;77.57;99005.03;4960425;28;20054;-92
2023/01/11 01:42:01;;;;;;;3.35;2.40;;;;;;;5.76;77.58;99020.47;4946190;28;20018;-92
2023/01/11 01:44:52;;;;;;;4.60;2.38;;;;;;;5.76;77.99;99017.00;4981122;28;20018;-95
2023/01/11 01:47:20;;;;;;;3.50;2.40;;;;;;;5.66;78.28;99010.47;4995842;28;20484;-92
2023/01/11 01:49:45;;;;;;;2.65;2.08;;;;;;;5.64;78.01;99001.06;4948369;28;20034;-94
2023/01/11 01:52:11;;;;;;;4.65;2.05;;;;;;;5.65;78.36;99008.84;4962972;28;20026;-94
2023/01/11 01:54:38;;;;;;;4.38;2.00;;;;;;;5.58;78.83;99018.06;4978371;28;20405;-94
2023/01/11 01:57:17;;;;;;;3.63;2.30;;;;;;;5.54;78.04;99014.25;4977754;28;20019;-94
2023/01/11 01:59:43;;;;;;;2.60;2.05;;;;;;;5.67;78.47;99027.28;4948991;28;20027;-93
2023/01/11 02:02:08;;;;;;;2.67;1.88;;;;;;;5.56;78.92;99028.19;4968419;28;20088;-93
2023/01/11 02:04:39;;;;;;;3.63;2.58;;;;;;;5.59;78.70;99025.84;4964004;28;20030;-94
2023/01/11 02:07:15;;;;;;;4.82;2.65;;;;;;;5.55;78.76;99039.94;4964401;28;20030;-94
2023/01/11 02:09:59;;;;;;;3.95;2.70;;;;;;;5.62;78.86;99051.25;4949272;28;20066;-94
2023/01/11 02:12:25;;;;;;;4.30;2.97;;;;;;;5.63;77.97;99045.66;5002964;28;20121;-94
2023/01/11 02:14:50;;;;;;;4.35;2.35;;;;;;;5.62;78.50;99041.38;4970185;28;20022;-93
2023/01/11 02:17:16;;;;;;;3.05;2.30;;;;;;;5.55;78.49;99029.25;4976523;28;20045;-94
2023/01/11 02:20:23;;;;;;;3.53;2.50;;;;;;;5.64;78.74;99038.44;4969735;28;20060;-93
2023/01/11 02:22:54;;;;;;;4.43;2.50;;;;;;;5.62;77.90;99029.88;4901180;29;20035;-93
2023/01/11 02:25:29;;;;;;;4.03;2.40;;;;;;;5.72;77.72;99034.56;4974082;28;20101;-94
2023/01/11 02:28:06;;;;;;;3.40;2.42;;;;;;;5.74;78.28;99049.28;4994776;28;20026;-94
2023/01/11 02:30:59;;;;;;;3.55;2.50;;;;;;;5.54;78.39;99056.97;4970283;28;20053;-94
2023/01/11 02:33:35;;;;;;;3.13;2.05;;;;;;;5.42;78.05;99031.19;4986709;28;20031;-94
2023/01/11 02:36:31;;;;;;;3.55;2.30;;;;;;;5.63;78.23;99067.03;4972483;28;20022;-94
2023/01/11 02:39:02;;;;;;;3.33;2.17;;;;;;;5.60;78.35;99048.00;5001703;28;20084;-93
2023/01/11 02:45:00;;;;;;;2.88;1.92;;;;;;;5.69;77.75;99045.75;4964040;28;20034;-94
2023/01/11 02:47:17;;;;;;;4.05;2.50;;;;;;;5.59;78.02;99049.88;4975821;28;20119;-94
2023/01/11 02:49:49;;;;;;;3.28;2.55;;;;;;;5.56;77.97;99052.22;4941152;28;20033;-94
2023/01/11 02:52:19;;;;;;;;;;;;;;;5.60;78.16;99059.50;4957907;28;20034;-93
2023/01/11 02:54:45;;;;;;;4.20;2.45;;;;;;;5.40;78.91;99043.16;4978103;28;19913;-94
2023/01/11 02:57:10;;;;;;;4.57;2.75;;;;;;;5.30;78.45;99040.34;4951738;28;20385;-93
2023/01/11 02:59:36;;;;;;;3.85;2.53;;;;;;;5.41;79.61;99055.44;4966577;28;20064;-93
2023/01/11 03:02:01;;;;;;;5.07;2.75;;;;;;;5.44;79.17;99071.00;4965897;28;20030;-94
2023/01/11 03:04:31;;;;;;;4.43;3.20;;;;;;;5.31;79.97;99052.63;4968334;28;20071;-93
2023/01/11 03:07:22;;;;;;;4.13;2.65;;;;;;;5.22;79.17;99042.34;4994755;28;20041;-94
2023/01/11 03:09:48;;;;;;;4.35;2.65;;;;;;;5.53;79.13;99079.41;4976325;28;20026;-94
2023/01/11 03:12:53;;;;;;;5.93;3.00;;;;;;;5.45;78.44;99068.06;4978411;28;20099;-94
2023/01/11 03:15:43;;;;;;;3.80;2.63;;;;;;;5.57;78.79;99073.34;4971305;28;20061;-94
2023/01/11 03:18:27;;;;;;;4.63;2.90;;;;;;;5.70;77.82;99074.88;4998714;28;20092;-94
2023/01/11 03:21:14;;;;;;;3.85;2.50;;;;;;;5.71;78.22;99091.69;4987353;28;20039;-93
2023/01/11 03:24:02;;;;;;;4.53;2.65;;;;;;;5.60;78.16;99096.91;4995146;28;20117;-94
2023/01/11 03:26:43;;;;;;;6.68;2.78;;;;;;;5.47;78.86;99100.69;4961683;28;20030;-93
2023/01/11 03:29:29;;;;;;;4.50;2.50;;;;;;;5.45;79.25;99099.31;4978155;28;20526;-93
2023/01/11 03:31:59;;;;;;;6.00;2.60;;;;;;;5.39;78.52;99085.06;4957928;28;20053;-94
2023/01/11 03:34:39;;;;;;;5.18;2.90;;;;;;;5.34;79.10;99079.63;4969532;28;20129;-93
2023/01/11 03:37:28;;;;;;;4.18;2.20;;;;;;;5.34;78.28;99071.63;4937476;28;20145;-94
2023/01/11 03:40:26;;;;;;;3.42;2.10;;;;;;;5.47;77.13;99090.00;4977656;28;20026;-94
2023/01/11 03:43:11;;;;;;;5.72;1.90;;;;;;;5.46;76.59;99093.72;4993856;28;20018;-94
2023/01/11 03:45:44;;;;;;;2.38;1.92;;;;;;;5.21;78.09;99080.75;4960274;28;20118;-95
2023/01/11 03:48:13;;;;;;;3.53;2.20;;;;;;;5.17;77.77;99062.81;4962276;28;20021;-94
2023/01/11 03:50:38;;;;;;;4.78;2.40;;;;;;;5.33;78.30;99079.88;4962292;28;20476;-94
2023/01/11 03:53:05;;;;;;;3.33;2.10;;;;;;;5.20;78.23;99089.00;4945391;28;20096;-94
2023/01/11 03:55:32;;;;;;;4.13;2.50;;;;;;;5.31;77.41;99081.97;4939244;28;20046;-94
2023/01/11 03:57:58;;;;;;;1.80;1.50;;;;;;;5.37;76.57;99065.00;4977206;28;20030;-94
2023/01/11 04:00:23;;;;;;;2.13;1.15;;;;;;;5.60;73.91;99107.59;4961562;28;20108;-93
2023/01/11 04:02:52;;;;;;;1.45;1.08;;;;;;;5.53;74.29;99093.56;4942122;28;20038;-93
2023/01/11 04:05:18;;;;;;;1.85;1.35;;;;;;;5.51;73.19;99106.34;4946547;28;20038;-94
2023/01/11 04:07:43;;;;;;;1.45;1.13;;;;;;;5.42;73.06;99095.25;4945420;28;20096;-94
2023/01/11 04:10:10;;;;;;;2.65;1.40;;;;;;;5.45;73.95;99099.31;4946401;28;20070;-93
2023/01/11 04:12:35;;;;;;;2.22;1.38;;;;;;;5.41;72.74;99092.81;4946906;28;20041;-94
2023/01/11 04:15:04;;;;;;;1.63;0.90;;;;;;;5.45;73.42;99100.09;4953540;28;20015;-94
2023/01/11 04:17:33;;;;;;;1.00;0.77;;;;;;;5.35;72.96;99091.94;4957082;28;20093;-95
2023/01/11 04:19:58;;;;;;;3.05;1.17;;;;;;;5.44;74.52;99093.16;4946039;28;20396;-93
2023/01/11 04:22:23;;;;;;;1.52;0.80;;;;;;;5.44;73.15;99089.69;4944572;28;20027;-94
2023/01/11 04:24:49;;;;;;;0.60;0.60;;;;;;;5.40;72.07;99086.69;4960812;28;20019;-93
2023/01/11 04:27:15;;;;;;;0.98;0.80;;;;;;;5.31;73.80;99093.47;4952650;28;20034;-94
2023/01/11 04:29:40;;;;;;;1.60;1.20;;;;;;;5.41;74.48;99096.31;4961709;28;20039;-93
2023/01/11 04:32:06;;;;;;;1.65;1.20;;;;;;;5.50;73.84;99101.25;4945642;28;20030;-93
2023/01/11 04:34:31;;;;;;;2.00;0.90;;;;;;;5.46;74.30;99099.06;4945952;28;20030;-93
2023/01/11 04:36:57;;;;;;;1.60;1.20;;;;;;;5.24;74.34;99085.59;4946072;28;20026;-93
2023/01/11 04:39:22;;;;;;;2.67;0.98;;;;;;;5.23;75.27;99124.03;4942780;28;20551;-93
2023/01/11 04:44:32;;;;;;;1.25;0.90;;;;;;;4.91;75.44;99113.03;4962895;28;20080;-94
2023/01/11 04:46:57;;;;;;;1.60;1.10;;;;;;;4.88;76.49;99108.19;4961682;28;20026;-93
2023/01/11 04:49:23;;;;;;;2.50;1.50;;;;;;;4.81;76.13;99110.97;4945916;28;20046;-94
2023/01/11 04:51:48;;;;;;;2.97;1.83;;;;;;;4.78;76.26;99127.44;4946179;28;20113;-94
2023/01/11 04:54:17;;;;;;;13.77;8.73;;;;;;;4.82;76.15;99141.13;4945584;28;20021;-94
2023/01/11 04:56:43;;;;;;;0.75;0.75;;;;;;;4.64;76.83;99121.56;4943107;28;20029;-94
2023/01/11 04:59:08;;;;;;;1.55;1.02;;;;;;;4.69;76.91;99146.72;4946318;28;20026;-94
2023/01/11 05:01:34;;;;;;;2.33;0.95;;;;;;;4.64;77.37;99147.44;4946691;28;20026;-94
2023/01/11 05:03:59;;;;;;;1.60;1.00;;;;;;;4.68;77.13;99132.56;4945219;28;20065;-94
2023/01/11 05:06:25;;;;;;;1.42;0.90;;;;;;;4.77;76.42;99133.84;4959054;28;20025;-94
2023/01/11 05:08:51;;;;;;;1.73;1.05;;;;;;;4.49;76.52;99118.59;4962453;28;20034;-93
2023/01/11 05:11:16;;;;;;;1.10;0.80;;;;;;;4.68;76.97;99137.09;4942429;28;20029;-94
2023/01/11 05:13:42;;;;;;;2.10;1.33;;;;;;;4.62;76.90;99121.00;4939778;28;20092;-93
2023/01/11 05:16:12;;;;;;;3.17;1.67;;;;;;;4.77;76.75;99143.69;4962122;28;20034;-95
2023/01/11 05:18:41;;;;;;;2.10;1.40;;;;;;;4.85;76.49;99145.97;4962286;28;20179;-93
2023/01/11 05:21:08;;;;;;;2.20;1.27;;;;;;;4.82;76.52;99127.78;4961586;28;20041;-96
2023/01/11 05:23:35;;;;;;;1.90;1.45;;;;;;;5.01;76.11;99137.22;4945441;28;20034;-94
2023/01/11 05:26:04;;;;;;;4.10;3.55;;;;;;;5.06;75.66;99153.34;4946610;28;20035;-95
2023/01/11 05:28:30;;;;;;;1.40;1.23;;;;;;;5.02;75.43;99143.38;4965751;28;20078;-94
2023/01/11 05:30:56;;;;;;;2.30;1.40;;;;;;;5.05;76.18;99142.91;4981522;28;20022;-95
2023/01/11 05:33:21;;;;;;;9.93;8.57;;;;;;;5.22;74.68;99158.97;4965057;28;20030;-93
2023/01/11 05:35:47;;;;;;;29.38;18.00;;;;;;;5.17;75.44;99133.00;4971714;28;20470;-93
2023/01/11 05:38:13;;;;;;;2.38;1.70;;;;;;;4.84;75.09;99136.38;4946526;28;20699;-93
2023/01/11 05:40:38;;;;;;;2.58;1.50;;;;;;;4.85;76.16;99144.13;4964939;28;20049;-93
2023/01/11 05:43:04;;;;;;;3.33;1.67;;;;;;;4.99;76.06;99139.31;4963439;28;20037;-94
2023/01/11 05:45:34;;;;;;;4.00;2.40;;;;;;;5.01;74.95;99120.41;4945694;28;20033;-94
2023/01/11 05:48:00;;;;;;;8.73;6.65;;;;;;;5.19;74.85;99146.13;4966761;28;20033;-94
2023/01/11 05:50:25;;;;;;;1.65;1.10;;;;;;;5.05;75.16;99129.56;4950074;28;20014;-93
2023/01/11 05:52:53;;;;;;;2.35;1.33;;;;;;;5.19;75.00;99180.81;4985478;28;20560;-92
2023/01/11 05:55:19;;;;;;;2.10;1.67;;;;;;;4.89;74.89;99157.81;4965399;28;20037;-96
2023/01/11 05:57:45;;;;;;;1.80;1.40;;;;;;;4.94;74.94;99157.91;4977318;28;20019;-94
2023/01/11 06:00:11;;;;;;;3.75;1.50;;;;;;;5.18;75.29;99189.84;4964916;28;20023;-93
2023/01/11 06:02:37;;;;;;;4.00;1.77;;;;;;;5.20;74.73;99169.06;4981801;28;20065;-94
2023/01/11 06:05:03;;;;;;;3.15;1.67;;;;;;;5.22;74.23;99157.09;4981140;28;20045;-95
2023/01/11 06:07:29;;;;;;;3.67;1.83;;;;;;;5.46;72.72;99181.84;4963628;28;20053;-94
2023/01/11 06:09:54;;;;;;;1.95;1.65;;;;;;;5.59;72.79;99180.72;4964943;28;20026;-95
2023/01/11 06:12:20;;;;;;;1.73;1.13;;;;;;;5.46;73.08;99181.03;4962808;28;20481;-95
2023/01/11 06:14:46;;;;;;;1.10;1.00;;;;;;;5.67;72.62;99208.91;4965396;28;20404;-96
2023/01/11 06:17:11;;;;;;;2.05;1.40;;;;;;;5.53;73.46;99199.59;4977584;28;20046;-94
2023/01/11 06:19:37;;;;;;;6.78;1.70;;;;;;;5.39;73.51;99210.53;4987209;28;20068;-94
2023/01/11 06:22:08;;;;;;;2.30;1.65;;;;;;;5.57;73.85;99214.09;4948244;28;20508;-94
2023/01/11 06:24:33;;;;;;;20.10;17.80;;;;;;;5.54;73.71;99196.69;4949714;28;20524;-95
2023/01/11 06:26:59;;;;;;;2.97;2.40;;;;;;;5.58;73.33;99211.19;4941606;28;20043;-95
2023/01/11 06:29:25;;;;;;;2.03;1.52;;;;;;;5.52;72.67;99206.78;4945989;28;20029;-93
2023/01/11 06:31:51;;;;;;;5.35;3.65;;;;;;;5.71;71.89;99204.72;4972558;28;20408;-94
2023/01/11 06:34:19;;;;;;;3.55;2.72;;;;;;;5.86;72.50;99212.97;4955516;28;20050;-94
2023/01/11 06:36:44;;;;;;;5.85;4.65;;;;;;;5.77;72.21;99182.38;4968032;28;20038;-94
2023/01/11 06:39:12;;;;;;;2.53;1.50;;;;;;;5.82;72.50;99198.50;4961880;28;20027;-96
2023/01/11 06:41:38;;;;;;;2.85;2.25;;;;;;;6.09;71.82;99208.56;4951036;28;20501;-95
2023/01/11 06:47:08;;;;;;;4.55;2.83;;;;;;;6.03;71.04;99206.88;5010968;28;20057;-94
2023/01/11 06:49:33;;;;;;;3.05;2.03;;;;;;;5.86;71.59;99223.66;5088650;23;20501;-93
2023/01/11 06:52:01;;;;;;;3.97;2.22;;;;;;;5.87;72.69;99241.34;4963504;28;20018;-95
2023/01/11 06:54:26;;;;;;;3.67;1.67;;;;;;;5.96;71.73;99232.97;4968999;28;20061;-94
2023/01/11 06:56:52;;;;;;;3.30;2.15;;;;;;;6.15;70.79;99230.88;4951385;28;20023;-94
2023/01/11 06:59:20;;;;;;;4.25;1.95;;;;;;;6.05;71.61;99245.66;4948247;28;20042;-92
2023/01/11 07:01:46;;;;;;;2.80;1.83;;;;;;;5.86;72.71;99242.38;4949600;28;20486;-94
2023/01/11 07:04:12;;;;;;;4.93;2.50;;;;;;;5.83;72.40;99234.03;4958400;28;20035;-92
2023/01/11 07:07:00;;;;;;;2.92;2.00;;;;;;;5.83;72.11;99247.38;4950267;28;20509;-92
2023/01/11 07:09:29;;;;;;;3.40;2.50;;;;;;;6.00;71.32;99253.63;4950585;28;20026;-94
2023/01/11 07:12:20;;;;;;;3.08;1.70;;;;;;;6.18;70.41;99260.56;4946596;28;20039;-96
2023/01/11 07:24:02;;;;;;;3.08;2.10;;;;;;;6.27;68.66;99240.41;5118350;23;20106;-96
2023/01/11 07:26:53;;;;;;;6.25;4.90;;;;;;;6.41;69.84;99272.16;4916376;28;20052;-95
2023/01/11 07:29:31;;;;;;;;;;;;;;;;;;;;;
2023/01/11 07:32:07;;;;;;;21.77;10.70;;;;;;;6.48;67.90;99267.47;5008105;23;20129;-96
2023/01/11 07:34:56;;;;;;;8.38;4.95;;;;;;;6.55;68.54;99278.00;4975060;28;20022;-96
2023/01/11 07:37:51;;;;;;;;;;;;;;;;;;;;;
2023/01/11 07:46:02;;;;;;;3.90;2.47;;;;;;;5.84;71.37;99300.59;4941111;28;20046;-96
2023/01/11 08:05:55;;;;;;;4.28;2.50;;;;;;;6.54;71.18;99348.63;1171235;23;20330;-92
2023/01/11 08:08:30;;;;;;;;;;;;;;;;;;;;;
2023/01/11 08:20:54;;;;;;;;;;;;;;;;;;;;;
2023/01/11 08:24:15;;;;;;;;;;;;;;;;;;;;;
2023/01/11 08:27:21;;;;;;;4.70;3.58;;;;;;;6.95;70.86;99384.88;4900968;29;20056;-96
2023/01/11 08:30:19;;;;;;;4.00;2.42;;;;;;;6.89;69.26;99361.75;4903054;29;20081;-96
2023/01/11 08:41:31;;;;;;;4.35;3.10;;;;;;;6.76;69.37;99372.78;5071379;23;20516;-95
2023/01/11 08:52:45;;;;;;;;;;;;;;;;;;;;;
2023/01/11 08:58:18;;;;;;;4.85;3.33;;;;;;;6.24;72.12;99403.19;5038065;28;20042;-96
2023/01/11 09:07:09;;;;;;;;;;;;;;;;;;;;;
2023/01/11 09:10:02;;;;;;;23.95;12.60;;;;;;;6.40;70.57;99383.69;5000587;28;20116;-96
2023/01/11 09:12:39;;;;;;;;;;;;;;;6.59;71.71;99428.94;5011997;28;20045;-96
2023/01/11 09:15:09;;;;;;;8.30;3.92;;;;;;;6.42;70.77;99404.84;5024553;28;19913;-96
2023/01/11 09:17:38;;;;;;;5.40;3.65;;;;;;;6.41;71.32;99433.47;4973972;28;20029;-96
2023/01/11 09:20:34;;;;;;;4.85;3.78;;;;;;;6.19;71.80;99401.22;4977141;28;20045;-96
2023/01/11 09:23:11;;;;;;;10.07;6.55;;;;;;;6.32;71.63;99408.16;5031459;28;20006;-95
2023/01/11 09:25:54;;;;;;;;;;;;;;;;;;;;;
2023/01/11 09:28:26;;;;;;;6.68;4.82;;;;;;;6.36;70.94;99409.28;4976126;28;20053;-96
2023/01/11 09:31:31;;;;;;;8.93;5.03;;;;;;;6.10;73.04;99401.84;4953194;28;20034;-96
2023/01/11 09:34:11;;;;;;;7.25;5.03;;;;;;;6.31;71.83;99419.91;4934674;29;20047;-96
2023/01/11 09:36:39;;;;;;;9.32;4.95;;;;;;;6.44;72.19;99426.81;4897347;29;20075;-96
2023/01/11 09:39:33;;;;;;;8.50;4.47;;;;;;;6.38;71.57;99417.88;4931033;29;20079;-96
2023/01/11 09:42:39;;;;;;;6.15;3.40;;;;;;;6.26;72.82;99406.44;4952844;29;20122;-96
2023/01/11 09:48:49;;;;;;;7.75;4.47;;;;;;;6.71;72.05;99431.56;4946284;29;20577;-93
2023/01/11 09:51:15;;;;;;;7.60;4.35;;;;;;;6.80;71.84;99422.09;4962707;28;20145;-95
2023/01/11 09:53:48;;;;;;;7.78;5.22;;;;;;;6.59;72.35;99411.03;4995926;28;20050;-95
2023/01/11 09:56:46;;;;;;;5.45;4.32;;;;;;;6.65;73.08;99406.59;4989382;28;20042;-96
2023/01/11 09:59:33;;;;;;;6.18;4.07;;;;;;;6.65;72.74;99411.94;5002811;28;20052;-96
2023/01/11 10:02:08;;;;;;;6.85;4.43;;;;;;;6.69;73.14;99423.78;4967105;28;20418;-95
2023/01/11 10:04:54;;;;;;;7.05;4.85;;;;;;;6.77;71.79;99441.31;5002335;28;20088;-94
2023/01/11 10:08:24;;;;;;;;;;;;;;;;;;;;;
2023/01/11 10:10:55;;;;;;;9.40;5.40;;;;;;;6.68;71.89;99440.88;5037626;28;20120;-96
2023/01/11 10:14:12;;;;;;;;;;;;;;;;;;;;;
2023/01/11 10:17:43;;;;;;;;;;;;;;;;;;;;;
2023/01/11 10:20:11;;;;;;;8.35;5.45;;;;;;;6.90;71.86;99474.97;5027082;28;20088;-93
2023/01/11 10:22:46;;;;;;;8.38;5.38;;;;;;;6.72;71.75;99444.69;5026186;28;20056;-94
2023/01/11 10:25:20;;;;;;;9.45;6.28;;;;;;;6.87;72.10;99476.28;5008104;28;20033;-95
2023/01/11 10:28:15;;;;;;;12.00;6.80;;;;;;;6.93;70.78;99466.44;5008405;28;20037;-95
2023/01/11 10:43:46;;;;;;;11.25;6.60;;;;;;;7.29;70.82;99465.97;4994329;28;20428;-96
2023/01/11 10:46:19;;;;;;;10.55;6.47;;;;;;;7.19;69.67;99435.56;5019249;28;20045;-92
2023/01/11 10:49:23;;;;;;;13.73;6.03;;;;;;;7.29;69.42;99441.06;4985870;28;20071;-95
2023/01/11 10:51:49;;;;;;;10.80;6.10;;;;;;;7.24;68.55;99441.81;4993637;28;20030;-94
2023/01/11 10:54:16;;;;;;;9.90;5.53;;;;;;;7.40;68.24;99458.91;4984571;28;20022;-93
2023/01/11 10:57:14;;;;;;;12.63;6.13;;;;;;;7.53;68.45;99470.34;4968488;28;20057;-94
2023/01/11 11:00:01;;;;;;;11.82;6.75;;;;;;;7.49;68.56;99467.31;4993586;28;20088;-94
2023/01/11 11:03:05;;;;;;;10.60;6.70;;;;;;;7.46;68.96;99474.00;5001472;28;20100;-93
2023/01/11 11:06:07;;;;;;;16.58;12.30;;;;;;;7.33;69.70;99469.00;4985945;28;20067;-96
2023/01/11 11:09:05;;;;;;;16.02;9.13;;;;;;;6.98;70.45;99427.19;5004098;28;20060;-96
2023/01/11 11:11:40;;;;;;;11.73;7.07;;;;;;;7.13;70.92;99455.28;5008048;28;20445;-95
2023/01/11 11:15:00;;;;;;;12.13;7.43;;;;;;;7.05;71.96;99461.84;5016435;28;20033;-96
2023/01/11 11:17:52;;;;;;;10.10;6.65;;;;;;;6.87;71.48;99428.91;5043909;28;20041;-95
2023/01/11 11:24:47;;;;;;;10.18;7.20;;;;;;;7.18;71.04;99447.31;5003937;28;20573;-96
2023/01/11 11:27:42;;;;;;;11.75;8.27;;;;;;;6.99;71.22;99442.22;5003854;28;20053;-96
2023/01/11 11:30:44;;;;;;;20.08;11.48;;;;;;;7.06;71.59;99466.16;5011070;28;20041;-96
2023/01/11 11:33:45;;;;;;;12.85;8.77;;;;;;;7.11;71.88;99465.41;5105544;22;20105;-96
2023/01/11 11:36:23;;;;;;;15.27;9.88;;;;;;;6.67;72.41;99431.22;5006139;28;20010;-96
2023/01/11 11:49:55;;;;;;;13.15;7.72;;;;;;;7.00;74.25;99478.63;4992854;28;20034;-96
2023/01/11 11:57:42;;;;;;;15.10;8.70;;;;;;;6.92;73.32;99459.50;5024814;28;20050;-96
2023/01/11 12:00:42;;;;;;;11.68;7.57;;;;;;;7.25;72.72;99490.81;4967603;28;20038;-96
2023/01/11 12:03:24;;;;;;;13.43;7.78;;;;;;;7.37;71.40;99482.72;4995463;28;20021;-96
2023/01/11 12:06:07;;;;;;;;;;;;;;;;;;;;;
2023/01/11 12:16:59;;;;;;;8.55;4.60;;;;;;;7.16;71.36;99446.75;5022427;28;20041;-95
2023/01/11 12:19:39;;;;;;;34.80;20.95;;;;;;;7.36;69.87;99470.34;4977048;28;20030;-93
2023/01/11 12:30:03;;;;;;;7.28;4.72;;;;;;;7.10;70.81;99472.66;5031260;28;20535;-96
2023/01/11 12:40:12;;;;;;;5.80;4.00;;;;;;;7.01;70.84;99444.63;4962941;28;20421;-95
2023/01/11 12:43:19;;;;;;;6.50;4.68;;;;;;;7.22;71.96;99459.16;5000015;28;20040;-95
2023/01/11 12:46:21;;;;;;;5.55;3.85;;;;;;;6.94;72.24;99428.75;5036486;28;20037;-96
2023/01/11 12:49:09;;;;;;;7.35;3.90;;;;;;;7.06;72.20;99466.94;5030578;28;20124;-96
2023/01/11 12:52:05;;;;;;;9.88;5.80;;;;;;;7.09;72.05;99466.44;5029204;28;20052;-96
2023/01/11 12:55:03;;;;;;;6.45;4.60;;;;;;;7.06;70.64;99450.91;4994669;28;20046;-96
2023/01/11 12:58:27;;;;;;;9.35;6.57;;;;;;;7.12;71.73;99450.97;4980966;28;20010;-94
2023/01/11 13:01:17;;;;;;;3.97;2.80;;;;;;;7.29;69.14;99491.94;4973662;28;20046;-94
2023/01/11 13:04:20;;;;;;;6.32;4.20;;;;;;;7.25;70.95;99496.97;5053454;28;20032;-96
2023/01/11 13:07:31;;;;;;;5.32;3.08;;;;;;;7.27;70.25;99507.47;5027907;28;20033;-96
2023/01/11 13:10:34;;;;;;;6.07;3.35;;;;;;;7.11;71.24;99519.78;5002722;28;20042;-96
2023/01/11 13:13:18;;;;;;;5.82;3.40;;;;;;;7.16;70.44;99508.31;4977884;28;20033;-96
2023/01/11 13:16:18;;;;;;;7.07;3.78;;;;;;;6.97;70.64;99495.19;4975356;28;20031;-96
2023/01/11 13:19:42;;;;;;;;;;;;;;;;;;;;;
2023/01/11 13:22:37;;;;;;;10.77;6.15;;;;;;;7.18;72.74;99517.75;5021826;28;20085;-96
2023/01/11 13:25:34;;;;;;;10.32;6.78;;;;;;;7.09;73.67;99506.63;5028472;23;20058;-96
2023/01/11 13:28:01;;;;;;;6.63;4.85;;;;;;;7.09;71.35;99509.28;4980216;28;20030;-96
2023/01/11 13:30:58;;;;;;;9.85;5.30;;;;;;;7.08;72.19;99494.28;5189508;23;20014;-96
2023/01/11 13:36:25;;;;;;;6.47;4.38;;;;;;;7.08;73.24;99506.88;5212115;23;20041;-95
2023/01/11 13:39:23;;;;;;;5.82;4.30;;;;;;;7.17;71.47;99512.66;4962009;28;20022;-96
2023/01/11 13:49:37;;;;;;;15.00;8.38;;;;;;;7.07;72.00;99516.75;4927050;29;20040;-96
2023/01/11 13:52:29;;;;;;;6.97;4.38;;;;;;;6.93;72.99;99494.06;5012635;28;20042;-96
2023/01/11 13:58:28;;;;;;;10.48;5.85;;;;;;;7.07;73.44;99532.81;5004143;28;20036;-96
2023/01/11 14:01:14;;;;;;;5.78;3.70;;;;;;;7.12;73.05;99547.34;4971896;28;20034;-96
2023/01/11 14:03:49;;;;;;;6.55;4.32;;;;;;;7.13;74.86;99554.34;4974597;28;20427;-94
2023/01/11 14:10:00;;;;;;;;;;;;;;;;;;;;;
2023/01/11 14:19:46;;;;;;;9.02;5.50;;;;;;;7.12;74.37;99569.59;5112327;23;20033;-96
2023/01/11 14:22:19;;;;;;;9.57;5.25;;;;;;;6.95;74.10;99544.66;5001056;28;20042;-95
2023/01/11 14:25:11;;;;;;;9.00;5.45;;;;;;;7.04;71.89;99572.66;4969794;28;20029;-96
2023/01/11 14:28:10;;;;;;;12.25;6.22;;;;;;;6.92;71.35;99555.84;5012855;28;20048;-96
2023/01/11 14:31:15;;;;;;;13.05;6.93;;;;;;;7.01;71.81;99568.59;4997373;28;20099;-96
2023/01/11 14:34:40;;;;;;;14.50;7.80;;;;;;;6.83;72.69;99574.97;5021941;28;20045;-96
2023/01/11 14:37:46;;;;;;;12.50;6.55;;;;;;;6.74;73.64;99592.44;5004745;28;20063;-96
2023/01/11 14:40:36;;;;;;;9.75;6.85;;;;;;;6.76;73.46;99582.31;4995718;28;20044;-95
2023/01/11 14:43:39;;;;;;;13.00;7.43;;;;;;;6.86;74.42;99595.88;5007705;28;20052;-96
2023/01/11 14:46:16;;;;;;;8.02;5.72;;;;;;;6.77;73.85;99589.31;5006158;28;20109;-96
2023/01/11 14:48:56;;;;;;;8.45;5.65;;;;;;;6.86;74.04;99603.09;5003564;28;20026;-96
2023/01/11 14:51:26;;;;;;;10.20;6.32;;;;;;;6.92;73.46;99617.41;4978921;28;20479;-96
2023/01/11 14:54:15;;;;;;;11.27;6.15;;;;;;;6.75;73.29;99595.94;5007003;28;20403;-96
2023/01/11 14:56:41;;;;;;;5.75;3.80;;;;;;;6.97;71.94;99630.88;4985758;28;20096;-96
2023/01/11 14:59:25;;;;;;;8.32;4.68;;;;;;;6.61;73.08;99625.63;5002464;28;20025;-96
2023/01/11 15:02:03;;;;;;;8.40;5.45;;;;;;;6.83;73.67;99641.06;5001778;28;20033;-96
2023/01/11 15:04:56;;;;;;;13.30;6.03;;;;;;;6.73;73.11;99622.13;5004507;28;20022;-96
2023/01/11 15:10:42;;;;;;;16.73;7.63;;;;;;;6.92;73.41;99650.34;5014784;28;20044;-95
2023/01/11 15:13:35;;;;;;;11.57;6.65;;;;;;;6.81;73.99;99643.97;5005967;28;20025;-96
2023/01/11 15:18:55;;;;;;;8.90;6.20;;;;;;;6.68;71.58;99620.13;5033935;28;19970;-96
2023/01/11 15:21:39;;;;;;;;;;;;;;;;;;;;;
2023/01/11 15:24:33;;;;;;;6.30;3.97;;;;;;;6.71;71.21;99649.13;5001103;28;20039;-96
2023/01/11 15:27:40;;;;;;;10.82;5.63;;;;;;;6.63;71.04;99620.06;4932484;28;20073;-96
2023/01/11 15:39:35;;;;;;;;;;;;;;;;;;;;;
2023/01/11 15:45:14;;;;;;;9.93;5.55;;;;;;;6.59;69.72;99634.94;5262765;22;20042;-96
2023/01/11 16:10:16;;;;;;;;;;;;;;;;;;;;;
2023/01/11 16:12:50;;;;;;;34.15;12.65;;;;;;;6.61;70.21;99665.75;5007292;28;20105;-96
2023/01/11 16:15:28;;;;;;;25.52;10.90;;;;;;;6.64;69.32;99678.69;4985183;28;20030;-95
2023/01/11 16:18:06;;;;;;;10.95;6.05;;;;;;;6.57;71.02;99677.97;4981001;28;20036;-96
2023/01/11 16:20:48;;;;;;;;;;;;;;;;;;;;;
2023/01/11 16:23:25;;;;;;;18.75;10.90;;;;;;;6.59;69.78;99683.91;4971307;28;20109;-96